Latest Weather Observations for Lucinda

IDQ60801

Issued at 11:32 am EST Monday 8 February 2016 (issued every 30 minutes, with the page automatically refreshed every 10 minutes)

About weather observations | Map of weather stations | Latest weather observations for QLD | Other Formats
Station Details ID: 032141 Name: LUCINDA POINT Lat: -18.52 Lon: 146.39 Height: 10.0 m
Data from the previous 72 hours. | See also: Recent months at Lucinda
Date/Time
EST
Temp
°C
App
Temp
°C
Dew
Point
Rel
Hum
%
Delta-T
°C
Wind Press
QNH
hPa
Press
MSL
hPa
Rain
since 9 am
mm
Dir
 
Spd
km/h
Gust
km/h
Spd
kts
Gust
kts
08/11:30am 27.7 33.2 24.1 81 2.5 SW 2 7 1 4 1009.6 1009.5 0.2
08/11:00am 27.8 33.3 24.6 83 2.2 N 4 7 2 4 1010.0 1009.9 0.2
08/10:30am 27.2 30.5 24.5 85 1.9 N 15 19 8 10 1010.4 1010.3 0.2
08/10:00am 26.7 28.8 24.7 89 1.4 N 22 30 12 16 1010.3 1010.2 0.2
08/09:30am 26.2 27.2 24.2 89 1.4 NNW 26 33 14 18 1010.2 1010.1 0.0
08/09:00am 26.3 27.8 24.3 89 1.4 NNW 24 35 13 19 1009.9 1009.8 2.0
08/08:30am 28.0 30.9 24.4 81 2.5 ESE 17 28 9 15 1009.7 1009.6 2.0
08/08:00am 27.5 32.7 25.1 87 1.7 N 7 13 4 7 1009.4 1009.3 2.0
08/07:30am 27.3 30.1 23.7 81 2.5 E 15 28 8 15 1009.1 1009.0 2.0
08/07:00am 29.0 33.4 26.2 85 2.0 SSE 15 28 8 15 1008.6 1008.5 2.0
08/06:30am 28.6 32.7 26.4 88 1.6 SE 17 24 9 13 1008.3 1008.2 2.0
08/06:00am 28.9 33.1 26.5 87 1.7 ESE 17 28 9 15 1007.9 1007.8 1.8
08/05:30am 28.6 32.9 26.6 89 1.4 SE 17 26 9 14 1007.6 1007.5 1.8
08/05:00am 28.5 32.9 25.7 85 2.0 ESE 13 24 7 13 1007.3 1007.2 1.0
08/04:30am 28.5 33.8 26.5 89 1.4 SE 11 19 6 10 1007.1 1007.0 1.0
08/04:00am 28.5 33.3 26.3 88 1.6 SE 13 20 7 11 1007.2 1007.1 1.0
08/03:30am 28.0 32.4 25.6 87 1.7 SE 13 20 7 11 1006.8 1006.7 1.0
08/03:00am 28.0 32.0 25.6 87 1.7 S 15 20 8 11 1006.9 1006.8 0.0
08/02:30am 29.1 35.3 26.7 87 1.7 S 7 11 4 6 1006.9 1006.8 0.0
08/02:00am 29.2 35.7 26.8 87 1.7 SSE 6 7 3 4 1007.0 1006.9 0.0
08/01:30am 29.3 35.0 26.5 85 2.0 S 9 11 5 6 1007.2 1007.1 0.0
08/01:00am 29.4 34.8 26.6 85 2.0 S 11 13 6 7 1007.5 1007.4 0.0
08/12:30am 29.2 34.6 26.6 86 1.9 S 11 15 6 8 1007.8 1007.7 0.0
08/12:00am 29.2 35.0 26.6 86 1.9 S 9 13 5 7 1008.1 1008.0 0.0
 
Date/Time
EST
Temp
°C
App
Temp
°C
Dew
Point
Rel
Hum
%
Delta-T
°C
Wind Press
QNH
hPa
Press
MSL
hPa
Rain
since 9 am
mm
Dir
 
Spd
km/h
Gust
km/h
Spd
kts
Gust
kts
07/11:30pm 29.3 35.5 26.7 86 1.9 S 7 11 4 6 1008.2 1008.1 0.0
07/11:00pm 29.3 34.4 26.7 86 1.9 S 13 19 7 10 1008.4 1008.3 0.0
07/10:30pm 29.3 34.4 26.7 86 1.9 S 13 17 7 9 1008.5 1008.4 0.0
07/10:00pm 29.4 34.9 26.8 86 1.9 S 11 15 6 8 1008.2 1008.1 0.0
07/09:30pm 29.3 34.5 26.9 87 1.7 S 13 17 7 9 1007.7 1007.6 0.0
07/09:00pm 29.8 36.4 27.2 86 1.9 N 7 9 4 5 1007.9 1007.8 0.0
07/08:30pm 29.9 35.6 27.1 85 2.0 NNE 11 13 6 7 1007.5 1007.4 0.0
07/08:00pm 30.0 35.8 27.2 85 2.0 NE 11 13 6 7 1007.3 1007.2 0.0
07/07:30pm 30.0 35.8 27.2 85 2.0 NNE 11 13 6 7 1006.9 1006.8 0.0
07/07:00pm 30.0 36.1 27.0 84 2.2 ENE 9 11 5 6 1006.8 1006.7 0.0
07/06:30pm 30.1 35.5 27.1 84 2.2 NE 13 15 7 8 1006.0 1005.9 0.0
07/06:00pm 30.5 36.2 27.1 82 2.5 E 11 17 6 9 1005.7 1005.6 0.0
07/05:30pm 30.6 35.3 26.7 80 2.8 ESE 15 19 8 10 1005.7 1005.6 0.0
07/05:00pm 30.6 35.5 27.0 81 2.6 SE 15 19 8 10 1005.3 1005.2 0.0
07/04:30pm 30.2 35.0 26.8 82 2.4 ENE 15 19 8 10 1004.8 1004.7 0.0
07/04:00pm 30.0 34.1 26.4 81 2.6 NE 17 20 9 11 1004.3 1004.2 0.0
07/03:30pm 30.4 35.1 26.1 78 3.1 ENE 13 15 7 8 1004.4 1004.3 0.0
07/03:00pm 31.0 36.7 26.5 77 3.2 ENE 9 15 5 8 1004.5 1004.4 0.0
07/02:30pm 30.5 35.6 26.7 80 2.7 ENE 13 17 7 9 1004.6 1004.5 0.0
07/02:00pm 29.7 33.4 26.3 82 2.4 NE 19 20 10 11 1004.7 1004.6 0.0
07/01:30pm 29.6 32.9 26.0 81 2.6 NE 20 22 11 12 1005.1 1005.0 0.0
07/01:00pm 30.2 34.5 26.1 79 2.9 E 15 17 8 9 1005.6 1005.5 0.0
07/12:30pm 29.9 34.0 26.3 81 2.6 E 17 20 9 11 1006.1 1006.0 0.0
07/12:00pm 30.2 33.7 25.5 76 3.3 ESE 17 20 9 11 1006.3 1006.2 0.0
07/11:30am 31.3 36.6 25.9 73 3.8 ESE 9 17 5 9 1006.5 1006.4 0.0
07/11:00am 31.8 37.1 25.9 71 4.2 ESE 9 13 5 7 1006.8 1006.7 0.0
07/10:30am 30.2 35.7 25.3 75 3.5 S 6 9 3 5 1006.8 1006.7 0.0
07/10:00am 29.5 34.1 25.3 78 3.0 S 11 13 6 7 1006.9 1006.8 0.0
07/09:30am 28.6 33.1 25.2 82 2.4 SSW 11 13 6 7 1006.9 1006.8 0.0
07/09:00am 28.1 33.0 25.3 85 2.0 SSW 9 11 5 6 1006.8 1006.7 19.8
07/08:30am 27.8 32.8 25.4 87 1.7 SSW 9 11 5 6 1006.6 1006.5 19.8
07/08:00am 27.3 31.7 25.1 88 1.5 SW 11 13 6 7 1006.5 1006.4 19.8
07/07:30am 27.3 31.5 25.3 89 1.4 SW 13 15 7 8 1006.4 1006.3 19.8
07/07:00am 26.9 30.9 25.1 90 1.3 SW 13 15 7 8 1006.1 1006.0 19.8
07/06:30am 26.7 30.7 25.1 91 1.1 WSW 13 15 7 8 1005.5 1005.4 19.8
07/06:00am 26.9 31.5 25.3 91 1.1 WSW 11 13 6 7 1004.9 1004.8 19.8
07/05:30am 27.1 31.1 25.1 89 1.4 WSW 13 15 7 8 1004.7 1004.6 19.8
07/05:00am 27.5 31.5 25.1 87 1.7 SW 13 15 7 8 1004.4 1004.3 19.8
07/04:30am 27.6 32.1 25.2 87 1.7 SSW 11 13 6 7 1004.2 1004.1 19.8
07/04:00am 27.8 32.3 25.2 86 1.8 SSW 11 13 6 7 1004.2 1004.1 19.8
07/03:30am 27.8 32.3 25.2 86 1.8 SW 11 13 6 7 1004.0 1003.9 19.8
07/03:00am 27.8 32.4 25.4 87 1.7 SSW 11 13 6 7 1004.2 1004.1 19.8
07/02:30am 27.5 32.3 25.7 90 1.3 SW 11 13 6 7 1004.3 1004.2 19.8
07/02:00am 27.4 32.5 25.6 90 1.3 SW 9 11 5 6 1004.2 1004.1 19.8
07/01:30am 27.3 32.1 25.7 91 1.1 WSW 11 13 6 7 1004.6 1004.5 19.8
07/01:00am 27.3 31.4 25.7 91 1.1 SW 15 17 8 9 1005.1 1005.0 19.8
07/12:30am 27.2 30.8 25.6 91 1.1 SW 17 19 9 10 1005.4 1005.3 19.8
07/12:00am 27.3 31.1 25.3 89 1.4 SW 15 17 8 9 1005.6 1005.5 19.8
 
Date/Time
EST
Temp
°C
App
Temp
°C
Dew
Point
Rel
Hum
%
Delta-T
°C
Wind Press
QNH
hPa
Press
MSL
hPa
Rain
since 9 am
mm
Dir
 
Spd
km/h
Gust
km/h
Spd
kts
Gust
kts
06/11:30pm 27.4 31.6 25.4 89 1.4 SW 13 15 7 8 1005.6 1005.5 19.8
06/11:00pm 27.7 32.1 25.7 89 1.4 SW 13 15 7 8 1005.8 1005.7 19.8
06/10:30pm 27.9 33.1 25.7 88 1.6 WSW 9 11 5 6 1005.6 1005.5 19.8
06/10:00pm 27.7 31.9 25.3 87 1.7 NW 13 15 7 8 1005.5 1005.4 19.8
06/09:30pm 27.7 31.3 24.3 82 2.4 NNW 13 17 7 9 1004.9 1004.8 19.8
06/09:00pm 27.6 30.0 24.2 82 2.4 N 19 24 10 13 1004.6 1004.5 19.8
06/08:30pm 27.3 30.0 24.7 86 1.8 N 19 24 10 13 1004.5 1004.4 19.8
06/08:00pm 27.0 28.0 24.8 88 1.5 NE 28 32 15 17 1004.5 1004.4 19.6
06/07:30pm 26.3 29.9 24.3 89 1.4 ENE 13 28 7 15 1003.9 1003.8 18.8
06/07:00pm 27.6 30.1 24.4 83 2.2 S 19 35 10 19 1003.8 1003.7 1.8
06/06:30pm 29.4 34.4 26.0 82 2.4 NE 11 13 6 7 1003.1 1003.0 0.0
06/06:00pm 29.5 34.4 25.9 81 2.6 ENE 11 13 6 7 1002.4 1002.3 0.0
06/05:30pm 29.6 34.3 25.6 79 2.8 ENE 11 13 6 7 1002.3 1002.2 0.0
06/05:00pm 29.7 34.1 25.7 79 2.8 ENE 13 19 7 10 1001.4 1001.3 0.0
06/04:30pm 29.4 33.1 25.8 81 2.6 NE 17 20 9 11 1000.9 1000.8 0.0
06/04:00pm 29.3 33.2 25.5 80 2.7 ENE 15 20 8 11 1001.0 1000.9 0.0
06/03:30pm 29.6 33.7 25.8 80 2.7 ENE 15 19 8 10 1001.6 1001.5 0.0
06/03:00pm 29.7 33.6 25.4 78 3.0 ENE 15 17 8 9 1002.0 1001.9 0.0
06/02:30pm 29.2 32.3 25.4 80 2.7 NE 19 20 10 11 1001.4 1001.3 0.0
06/02:00pm 29.2 32.9 25.2 79 2.8 NE 15 17 8 9 1001.9 1001.8 0.0
06/01:30pm 29.2 32.9 25.2 79 2.8 NE 15 17 8 9 1002.1 1002.0 0.0
06/01:00pm 29.8 33.6 25.3 77 3.2 NNE 15 19 8 10 1002.5 1002.4 0.0
06/12:30pm 30.4 34.8 24.5 70 4.1 ENE 9 13 5 7 1003.1 1003.0 0.0
06/12:00pm 31.5 36.3 24.4 66 5.0 ESE 7 11 4 6 1003.5 1003.4 0.0
06/11:30am 31.5 36.3 25.1 69 4.5 ESE 9 11 5 6 1003.7 1003.6 0.0
06/11:00am 30.8 36.1 24.9 71 4.2 ESE 6 9 3 5 1003.7 1003.6 0.0
06/10:30am 31.2 37.2 26.0 74 3.7 SE 6 7 3 4 1003.6 1003.5 0.0
06/10:00am 28.8 35.1 24.8 79 2.8 CALM 0 0 0 0 1003.8 1003.7 0.0
06/09:30am 28.7 35.0 25.3 82 2.4 SW 2 6 1 3 1003.8 1003.7 0.0
06/09:00am 28.2 33.8 25.4 85 2.0 S 6 7 3 4 1003.5 1003.4 0.0
06/08:30am 27.3 32.1 25.1 88 1.5 SSW 9 11 5 6 1003.3 1003.2 0.0
06/08:00am 27.2 31.6 25.0 88 1.5 SW 11 13 6 7 1003.0 1002.9 0.0
06/07:30am 27.0 30.7 25.2 90 1.3 SW 15 17 8 9 1003.0 1002.9 0.0
06/07:00am 26.8 30.7 24.8 89 1.4 SSW 13 15 7 8 1003.0 1002.9 0.0
06/06:30am 27.5 32.3 25.1 87 1.7 SW 9 13 5 7 1002.5 1002.4 0.0
06/06:00am 27.7 33.2 25.3 87 1.7 SSW 6 7 3 4 1002.0 1001.9 0.0
06/05:30am 27.7 33.0 25.3 87 1.7 S 7 9 4 5 1001.7 1001.6 0.0
06/05:00am 27.6 32.6 25.4 88 1.6 S 9 11 5 6 1001.5 1001.4 0.0
06/04:30am 27.6 32.6 25.4 88 1.5 S 9 13 5 7 1001.1 1001.0 0.0
06/04:00am 27.7 33.3 25.5 88 1.6 S 6 9 3 5 1000.8 1000.7 0.0
06/03:30am 27.8 32.5 25.6 88 1.5 S 11 13 6 7 1000.7 1000.6 0.0
06/03:00am 27.7 33.0 25.9 90 1.3 SSW 9 9 5 5 1000.8 1000.7 0.0
06/02:30am 27.9 33.5 25.7 88 1.6 S 7 9 4 5 1000.8 1000.7 0.0
06/02:00am 27.9 33.2 25.9 89 1.4 SSW 9 13 5 7 1000.7 1000.6 0.0
06/01:30am 28.0 32.5 25.8 88 1.6 SW 13 15 7 8 1001.2 1001.1 0.0
06/01:00am 27.8 32.5 25.6 88 1.6 SSW 11 15 6 8 1001.7 1001.6 0.0
06/12:30am 27.8 31.2 25.8 89 1.4 SW 19 20 10 11 1002.2 1002.1 0.0
06/12:00am 28.2 31.7 26.0 88 1.6 SSW 19 22 10 12 1002.6 1002.5 0.0
 
Date/Time
EST
Temp
°C
App
Temp
°C
Dew
Point
Rel
Hum
%
Delta-T
°C
Wind Press
QNH
hPa
Press
MSL
hPa
Rain
since 9 am
mm
Dir
 
Spd
km/h
Gust
km/h
Spd
kts
Gust
kts
05/11:30pm 28.7 32.6 26.1 86 1.8 SW 17 20 9 11 1003.0 1002.9 0.0
05/11:00pm 28.4 33.9 26.2 88 1.6 SW 9 13 5 7 1003.4 1003.3 0.0
05/10:30pm 28.3 33.8 26.1 88 1.6 SW 9 13 5 7 1003.4 1003.3 0.0
05/10:00pm 28.3 32.5 25.9 87 1.7 SW 15 17 8 9 1003.0 1002.9 0.0
05/09:30pm 28.4 30.9 26.0 87 1.7 WSW 24 33 13 18 1003.5 1003.4 0.0
05/09:00pm 28.3 31.7 26.1 88 1.6 SW 20 26 11 14 1003.3 1003.2 0.0
05/08:30pm 29.2 30.0 26.0 83 2.3 NNW 33 41 18 22 1002.6 1002.5 0.0
05/08:00pm 28.9 28.5 25.3 81 2.5 NNW 37 41 20 22 1001.9 1001.8 0.0
05/07:30pm 29.2 30.6 26.6 86 1.9 NNW 32 35 17 19 1001.9 1001.8 0.0
05/07:00pm 29.3 30.5 26.5 85 2.0 NNW 33 37 18 20 1001.8 1001.7 0.0
05/06:30pm 29.4 30.7 26.4 84 2.1 NNW 32 35 17 19 1001.1 1001.0 0.0
05/06:00pm 29.5 31.0 26.1 82 2.4 NNW 30 33 16 18 1000.2 1000.1 0.0
05/05:30pm 29.5 31.9 26.3 83 2.3 NNW 26 32 14 17 1000.0 999.9 0.0
05/05:00pm 29.5 32.0 25.9 81 2.6 N 24 28 13 15 999.7 999.6 0.0
05/04:30pm 29.7 32.2 25.9 80 2.7 N 24 26 13 14 999.7 999.6 0.0
05/04:00pm 29.6 32.4 25.8 80 2.7 NNE 22 26 12 14 999.6 999.5 0.0
05/03:30pm 29.5 32.9 25.9 81 2.6 NNE 19 22 10 12 1000.5 1000.4 0.0
05/03:00pm 29.4 31.9 26.0 82 2.4 NNE 24 28 13 15 1000.3 1000.2 0.0
05/02:30pm 29.3 31.9 26.1 83 2.3 NE 24 28 13 15 1000.3 1000.2 0.0
05/02:00pm 29.1 31.8 26.3 85 2.0 NE 24 26 13 14 1000.9 1000.8 0.0
05/01:30pm 29.2 32.4 25.8 82 2.4 NE 20 24 11 13 1001.2 1001.1 0.0
05/01:00pm 29.2 32.6 26.2 84 2.1 NE 20 20 11 11 1001.6 1001.5 0.0
05/12:30pm 29.3 33.5 25.9 82 2.4 NNE 15 17 8 9 1002.1 1002.0 0.0
05/12:00pm 30.3 35.4 25.6 76 3.3 E 9 13 5 7 1002.6 1002.5 0.0

Other Formats:

Comma delimited format used in spreadsheet applications
http://www.bom.gov.au/fwo/IDQ60801/IDQ60801.94295.axf

JavaScript Object Notation format (JSON) in row-major order
http://www.bom.gov.au/fwo/IDQ60801/IDQ60801.94295.json